Time;durP1;ratioP1;P1;durP2;ratioP2;P2;SDS_P1;SDS_P2;PMS_P1;PMS_P2;Temp;Humidity;BMP_temperature;BMP_pressure;BME280_temperature;BME280_humidity;BME280_pressure;Samples;Min_cycle;Max_cycle;Signal;HPM_P1;HPM_P2
2023/10/29 00:01:58;;;;;;;2.27;0.73;;;12.70;99.90;;;;;;5076979;28;20290;-44
2023/10/29 00:04:23;;;;;;;3.63;0.83;;;12.70;99.90;;;;;;5076921;28;20222;-44
2023/10/29 00:06:49;;;;;;;2.53;0.90;;;12.70;99.90;;;;;;5076526;28;20594;-44
2023/10/29 00:09:18;;;;;;;1.87;0.77;;;12.70;99.90;;;;;;5076607;28;20590;-46
2023/10/29 00:11:49;;;;;;;5.00;1.10;;;12.70;99.90;;;;;;5058757;28;20235;-45
2023/10/29 00:14:15;;;;;;;0.93;0.80;;;12.70;99.90;;;;;;5076547;28;20184;-45
2023/10/29 00:16:41;;;;;;;2.30;1.03;;;12.70;99.90;;;;;;5076219;28;20179;-45
2023/10/29 00:19:08;;;;;;;4.07;0.73;;;12.80;99.90;;;;;;5076266;28;20191;-44
2023/10/29 00:21:34;;;;;;;5.40;1.13;;;12.80;99.90;;;;;;5076393;28;20214;-46
2023/10/29 00:24:00;;;;;;;1.63;0.70;;;12.80;99.90;;;;;;5076032;28;20211;-45
2023/10/29 00:26:26;;;;;;;2.50;0.80;;;12.80;99.90;;;;;;5076365;28;20186;-45
2023/10/29 00:28:54;;;;;;;1.43;0.80;;;12.90;99.90;;;;;;5058223;28;20215;-45
2023/10/29 00:31:20;;;;;;;1.23;0.80;;;12.90;99.90;;;;;;5075886;28;20207;-45
2023/10/29 00:33:58;;;;;;;3.10;1.07;;;13.00;99.90;;;;;;5076186;28;20176;-45
2023/10/29 00:37:13;;;;;;;4.40;1.30;;;13.00;99.90;;;;;;5076229;28;20648;-45
2023/10/29 00:39:40;;;;;;;1.87;0.70;;;13.00;99.90;;;;;;5076139;28;20199;-46
2023/10/29 00:42:14;;;;;;;2.43;0.93;;;13.00;99.90;;;;;;5076678;28;20203;-42
2023/10/29 00:44:44;;;;;;;3.13;1.10;;;13.10;99.90;;;;;;5075927;28;20181;-43
2023/10/29 00:47:10;;;;;;;0.73;0.60;;;13.10;99.90;;;;;;5076142;28;20195;-41
2023/10/29 00:49:35;;;;;;;6.27;0.97;;;13.10;99.90;;;;;;5075952;28;20196;-41
2023/10/29 00:52:03;;;;;;;1.50;1.00;;;13.10;99.90;;;;;;5075485;28;20226;-42
2023/10/29 00:54:30;;;;;;;2.97;0.90;;;13.00;99.90;;;;;;5076133;28;20241;-42
2023/10/29 00:56:57;;;;;;;2.20;1.10;;;13.10;99.90;;;;;;5041456;28;20598;-41
2023/10/29 00:59:30;;;;;;;1.27;1.00;;;13.10;99.90;;;;;;5074571;28;20278;-43
2023/10/29 01:02:02;;;;;;;1.27;0.90;;;13.10;99.90;;;;;;5058637;28;20207;-41
2023/10/29 01:04:31;;;;;;;0.77;0.67;;;13.10;99.90;;;;;;5075668;28;20644;-41
2023/10/29 01:06:58;;;;;;;3.20;1.13;;;13.10;99.90;;;;;;5075452;28;20664;-42
2023/10/29 01:09:23;;;;;;;6.90;1.30;;;13.00;99.90;;;;;;5057941;28;20206;-41
2023/10/29 01:11:55;;;;;;;4.50;0.80;;;13.10;99.90;;;;;;5057310;28;20310;-41
2023/10/29 01:14:23;;;;;;;2.30;1.20;;;13.10;99.90;;;;;;5075178;28;20608;-41
2023/10/29 01:16:51;;;;;;;5.60;1.00;;;13.10;99.90;;;;;;5075122;28;20188;-41
2023/10/29 01:19:16;;;;;;;4.03;1.07;;;13.10;99.90;;;;;;5075133;28;20175;-40
2023/10/29 01:21:45;;;;;;;1.17;0.70;;;13.10;99.90;;;;;;5057114;28;20561;-43
2023/10/29 01:24:13;;;;;;;3.80;1.10;;;13.10;99.90;;;;;;5074910;28;20207;-42
2023/10/29 01:26:38;;;;;;;1.77;1.10;;;13.10;99.90;;;;;;5057493;28;20207;-41
2023/10/29 01:29:35;;;;;;;1.60;0.90;;;13.20;99.90;;;;;;5074976;28;20284;-41
2023/10/29 01:32:02;;;;;;;1.63;0.70;;;13.20;99.90;;;;;;5074862;28;20630;-41
2023/10/29 01:34:33;;;;;;;1.90;0.87;;;13.20;99.90;;;;;;5057226;28;20326;-41
2023/10/29 01:36:59;;;;;;;2.97;0.90;;;13.20;99.90;;;;;;5074774;28;20219;-43
2023/10/29 01:39:25;;;;;;;1.47;0.80;;;13.20;99.90;;;;;;5057294;28;20599;-42
2023/10/29 01:41:55;;;;;;;1.87;1.23;;;13.20;99.90;;;;;;5074545;28;20243;-42
2023/10/29 01:44:23;;;;;;;4.13;0.87;;;13.20;99.90;;;;;;5075413;28;20180;-42
2023/10/29 01:47:23;;;;;;;1.27;0.70;;;13.20;99.90;;;;;;5056166;28;20191;-42
2023/10/29 01:49:48;;;;;;;1.37;0.73;;;13.20;99.90;;;;;;5056491;28;20246;-41
2023/10/29 01:52:14;;;;;;;1.00;0.67;;;13.20;99.90;;;;;;5056394;28;20224;-41
2023/10/29 01:54:40;;;;;;;2.17;0.80;;;13.30;99.90;;;;;;5075468;28;20199;-42
2023/10/29 01:57:06;;;;;;;0.80;0.70;;;13.30;99.90;;;;;;5039785;28;20199;-42
2023/10/29 01:59:32;;;;;;;0.67;0.53;;;13.30;99.90;;;;;;5056497;28;20237;-42
2023/10/29 02:01:59;;;;;;;4.40;0.70;;;13.30;99.90;;;;;;5056292;28;20222;-41
2023/10/29 02:04:26;;;;;;;1.50;1.00;;;13.40;99.90;;;;;;5056422;28;20717;-42
2023/10/29 02:06:57;;;;;;;2.63;0.90;;;13.40;99.90;;;;;;5074576;28;20226;-41
2023/10/29 02:09:24;;;;;;;1.93;0.67;;;13.40;99.90;;;;;;5040233;28;20269;-43
2023/10/29 02:11:50;;;;;;;2.03;0.77;;;13.40;99.90;;;;;;5040149;28;20224;-41
2023/10/29 02:17:41;;;;;;;0.50;0.50;;;13.30;99.90;;;;;;5074121;28;20163;-42
2023/10/29 02:20:09;;;;;;;1.03;0.67;;;13.30;99.90;;;;;;5073910;28;20222;-41
2023/10/29 02:22:35;;;;;;;2.73;0.70;;;13.30;99.90;;;;;;5073780;28;20196;-40
2023/10/29 02:25:06;;;;;;;4.40;0.83;;;13.30;99.90;;;;;;5023046;28;20219;-40
2023/10/29 02:27:32;;;;;;;0.73;0.57;;;13.20;99.90;;;;;;5056906;28;20620;-41
2023/10/29 02:29:57;;;;;;;1.10;0.50;;;13.30;99.90;;;;;;5055857;28;20286;-45
2023/10/29 02:32:23;;;;;;;1.37;0.77;;;13.20;99.90;;;;;;5055884;28;20269;-47
2023/10/29 02:35:08;;;;;;;1.93;0.60;;;13.20;99.90;;;;;;5074197;28;20640;-45
2023/10/29 02:37:33;;;;;;;1.00;0.53;;;13.20;99.90;;;;;;5055891;28;20245;-45
2023/10/29 02:39:59;;;;;;;1.37;0.70;;;13.20;99.90;;;;;;5055675;28;20188;-45
2023/10/29 02:42:26;;;;;;;1.07;0.73;;;13.20;99.90;;;;;;5073437;28;20561;-45
2023/10/29 02:44:52;;;;;;;3.13;0.67;;;13.30;99.90;;;;;;5074114;28;20551;-45
2023/10/29 02:47:20;;;;;;;2.53;0.63;;;13.30;99.90;;;;;;5056038;28;20192;-46
2023/10/29 02:49:45;;;;;;;1.17;0.50;;;13.30;99.90;;;;;;5074137;28;20188;-45
2023/10/29 02:52:11;;;;;;;2.30;0.93;;;13.30;99.90;;;;;;5073237;28;20369;-45
2023/10/29 02:54:37;;;;;;;1.27;0.70;;;13.30;99.90;;;;;;5073537;28;20207;-45
2023/10/29 02:57:05;;;;;;;1.47;0.60;;;13.30;99.90;;;;;;5073646;28;20196;-46
2023/10/29 02:59:31;;;;;;;0.90;0.70;;;13.20;99.90;;;;;;5073346;28;20188;-45
2023/10/29 03:01:56;;;;;;;1.03;0.40;;;13.30;99.90;;;;;;5073740;28;20629;-46
2023/10/29 03:04:26;;;;;;;3.17;0.73;;;13.30;99.90;;;;;;5074031;28;20219;-46
2023/10/29 03:06:52;;;;;;;2.20;0.70;;;13.30;99.90;;;;;;5073767;28;20274;-45
2023/10/29 03:09:18;;;;;;;1.00;0.60;;;13.20;99.90;;;;;;5073704;28;20172;-46
2023/10/29 03:11:43;;;;;;;1.40;0.60;;;13.30;99.90;;;;;;5074210;28;20697;-46
2023/10/29 03:14:09;;;;;;;5.80;0.80;;;13.20;99.90;;;;;;5073695;28;20207;-47
2023/10/29 03:16:34;;;;;;;2.43;0.60;;;13.20;99.90;;;;;;5074116;28;20176;-45
2023/10/29 03:19:01;;;;;;;0.93;0.50;;;13.20;99.90;;;;;;5073184;28;20528;-45
2023/10/29 03:21:28;;;;;;;1.10;0.57;;;13.20;99.90;;;;;;5074461;28;20208;-45
2023/10/29 03:23:54;;;;;;;1.90;0.63;;;13.20;99.90;;;;;;5077270;28;20203;-46
2023/10/29 03:26:20;;;;;;;0.63;0.63;;;13.20;99.90;;;;;;5059517;28;20184;-45
2023/10/29 03:28:48;;;;;;;1.90;0.73;;;13.20;99.90;;;;;;5077170;28;20183;-46
2023/10/29 03:31:15;;;;;;;0.43;0.43;;;13.20;99.90;;;;;;5077105;28;20277;-45
2023/10/29 03:33:48;;;;;;;1.77;0.53;;;13.20;99.90;;;;;;5042668;28;20225;-46
2023/10/29 03:36:13;;;;;;;1.03;0.53;;;13.20;99.90;;;;;;5077138;28;20179;-45
2023/10/29 03:38:39;;;;;;;1.50;0.77;;;13.30;99.90;;;;;;5059097;28;20211;-46
2023/10/29 03:41:05;;;;;;;0.87;0.60;;;13.30;99.90;;;;;;5077474;28;20207;-45
2023/10/29 03:43:30;;;;;;;1.97;0.60;;;13.30;99.90;;;;;;5077081;28;20175;-46
2023/10/29 03:46:15;;;;;;;1.23;0.50;;;13.40;99.90;;;;;;5076919;28;20188;-45
2023/10/29 03:48:44;;;;;;;0.63;0.40;;;13.40;99.90;;;;;;5077051;28;20279;-45
2023/10/29 03:51:13;;;;;;;0.60;0.40;;;13.40;99.90;;;;;;5076776;28;20199;-46
2023/10/29 03:53:39;;;;;;;0.87;0.67;;;13.40;99.90;;;;;;5059723;28;20242;-46
2023/10/29 03:56:06;;;;;;;5.20;0.80;;;13.50;99.90;;;;;;5058992;28;20261;-45
2023/10/29 03:58:33;;;;;;;2.60;0.40;;;13.50;99.90;;;;;;5076966;28;20187;-45
2023/10/29 04:01:02;;;;;;;1.33;0.63;;;13.50;99.90;;;;;;5076448;28;20211;-45
2023/10/29 04:03:31;;;;;;;2.33;0.67;;;13.50;99.90;;;;;;5076775;28;20195;-46
2023/10/29 04:05:58;;;;;;;4.10;0.60;;;13.50;99.90;;;;;;5076686;28;20218;-44
2023/10/29 04:08:24;;;;;;;0.93;0.60;;;13.60;99.90;;;;;;5076489;28;20214;-47
2023/10/29 04:10:50;;;;;;;0.60;0.50;;;13.60;99.90;;;;;;5076339;28;20667;-45
2023/10/29 04:13:15;;;;;;;2.13;0.70;;;13.70;99.90;;;;;;5058747;28;20290;-45
2023/10/29 04:15:41;;;;;;;2.60;0.70;;;13.70;99.90;;;;;;5076589;28;20613;-46
2023/10/29 04:18:06;;;;;;;0.80;0.47;;;13.70;99.90;;;;;;5076954;28;20601;-44
2023/10/29 04:20:45;;;;;;;0.97;0.47;;;13.70;99.90;;;;;;5076432;28;20219;-45
2023/10/29 04:23:10;;;;;;;4.80;0.80;;;13.70;99.90;;;;;;5058272;28;20655;-46
2023/10/29 04:25:37;;;;;;;4.23;1.00;;;13.80;99.90;;;;;;5076515;28;20180;-46
2023/10/29 04:28:02;;;;;;;1.73;0.70;;;13.90;99.90;;;;;;5058088;28;20194;-47
2023/10/29 04:30:30;;;;;;;2.97;0.70;;;13.80;99.90;;;;;;5076287;28;20555;-45
2023/10/29 04:32:56;;;;;;;1.93;0.57;;;13.90;99.90;;;;;;5058181;28;20250;-45
2023/10/29 04:35:22;;;;;;;1.97;0.60;;;13.80;99.90;;;;;;5075160;28;20664;-45
2023/10/29 04:37:47;;;;;;;1.77;0.57;;;13.90;99.90;;;;;;5041417;28;20295;-49
2023/10/29 04:40:14;;;;;;;1.10;0.57;;;13.90;99.90;;;;;;5075848;28;20211;-44
2023/10/29 04:42:40;;;;;;;5.90;0.57;;;13.80;99.90;;;;;;5075738;28;20718;-47
2023/10/29 04:45:06;;;;;;;0.93;0.60;;;13.80;99.90;;;;;;5075863;28;20218;-46
2023/10/29 04:47:33;;;;;;;1.37;0.50;;;13.80;99.90;;;;;;5076034;28;20183;-45
2023/10/29 04:50:01;;;;;;;1.40;0.60;;;13.80;99.90;;;;;;5075675;28;20188;-46
2023/10/29 04:52:27;;;;;;;2.60;0.80;;;13.80;99.90;;;;;;5075788;28;20230;-47
2023/10/29 04:54:54;;;;;;;2.20;0.60;;;13.80;99.90;;;;;;5041149;28;20195;-45
2023/10/29 04:57:21;;;;;;;2.13;1.00;;;13.90;99.90;;;;;;5075933;28;20198;-46
2023/10/29 04:59:48;;;;;;;3.13;1.00;;;13.90;99.90;;;;;;5075632;28;20190;-45
2023/10/29 05:02:21;;;;;;;2.57;0.70;;;13.80;99.90;;;;;;5057864;28;20235;-46
2023/10/29 05:04:47;;;;;;;1.60;0.60;;;13.80;99.90;;;;;;5075820;28;20195;-45
2023/10/29 05:07:13;;;;;;;2.90;0.70;;;13.80;99.90;;;;;;5075429;28;20187;-45
2023/10/29 05:09:39;;;;;;;2.40;0.60;;;13.80;99.90;;;;;;5075678;28;20612;-46
2023/10/29 05:12:07;;;;;;;1.40;0.50;;;13.80;99.90;;;;;;5057393;28;20251;-45
2023/10/29 05:14:32;;;;;;;6.80;0.80;;;13.80;99.90;;;;;;5075597;28;20196;-45
2023/10/29 05:17:02;;;;;;;1.83;1.07;;;13.80;99.90;;;;;;5057542;28;20274;-46
2023/10/29 05:19:27;;;;;;;6.00;0.60;;;13.80;99.90;;;;;;5075133;28;20179;-45
2023/10/29 05:21:56;;;;;;;5.67;0.70;;;13.80;99.90;;;;;;5074993;28;20217;-45
2023/10/29 05:24:27;;;;;;;1.67;0.60;;;13.90;99.90;;;;;;5057290;28;20687;-44
2023/10/29 05:26:53;;;;;;;3.60;0.80;;;13.80;99.90;;;;;;5075660;28;20179;-45
2023/10/29 05:29:18;;;;;;;3.63;0.80;;;13.80;99.90;;;;;;5075012;28;20187;-45
2023/10/29 05:31:47;;;;;;;1.87;0.57;;;13.80;99.90;;;;;;5074872;28;20215;-46
2023/10/29 05:34:14;;;;;;;1.57;0.67;;;13.80;99.90;;;;;;5075151;28;20183;-45
2023/10/29 05:36:40;;;;;;;3.53;0.97;;;13.80;99.90;;;;;;5075475;28;20600;-45
2023/10/29 05:39:08;;;;;;;2.60;0.70;;;13.80;99.90;;;;;;5074855;28;20176;-45
2023/10/29 05:41:33;;;;;;;3.17;0.77;;;13.70;99.90;;;;;;5074937;28;20273;-45
2023/10/29 05:43:59;;;;;;;2.27;0.80;;;13.70;99.90;;;;;;5074132;28;20180;-44
2023/10/29 05:46:27;;;;;;;4.80;0.70;;;13.60;99.90;;;;;;5057680;28;20171;-45
2023/10/29 05:48:58;;;;;;;2.83;0.53;;;13.60;99.90;;;;;;5075652;28;20183;-46
2023/10/29 05:51:27;;;;;;;6.53;0.97;;;13.60;99.90;;;;;;5075298;28;20200;-46
2023/10/29 05:53:56;;;;;;;3.53;0.70;;;13.60;99.90;;;;;;5074704;28;20366;-44
2023/10/29 05:56:21;;;;;;;3.80;1.40;;;13.60;99.90;;;;;;5074776;28;20180;-44
2023/10/29 05:58:48;;;;;;;2.57;0.60;;;13.60;99.90;;;;;;5074466;28;20179;-43
2023/10/29 06:01:17;;;;;;;3.07;0.60;;;13.60;99.90;;;;;;5074291;28;20764;-45
2023/10/29 06:03:45;;;;;;;5.97;1.00;;;13.60;99.90;;;;;;5074551;28;20199;-45
2023/10/29 06:06:13;;;;;;;2.57;0.67;;;13.60;99.90;;;;;;5057084;28;20278;-44
2023/10/29 06:08:39;;;;;;;2.93;0.97;;;13.60;99.90;;;;;;5056138;28;20194;-45
2023/10/29 06:11:06;;;;;;;6.77;1.00;;;13.60;99.90;;;;;;5056245;28;20242;-45
2023/10/29 06:13:31;;;;;;;2.13;0.90;;;13.60;99.90;;;;;;5074294;28;20627;-44
2023/10/29 06:15:57;;;;;;;3.50;0.80;;;13.60;99.90;;;;;;5074051;28;20671;-44
2023/10/29 06:18:22;;;;;;;3.93;0.87;;;13.50;99.90;;;;;;5074035;28;20176;-45
2023/10/29 06:20:48;;;;;;;3.93;1.13;;;13.50;99.90;;;;;;5072911;28;20199;-45
2023/10/29 06:23:14;;;;;;;2.20;0.77;;;13.50;99.90;;;;;;5056037;28;20199;-44
2023/10/29 06:25:39;;;;;;;2.47;0.90;;;13.50;99.90;;;;;;5074441;28;20168;-45
2023/10/29 06:28:07;;;;;;;3.30;1.10;;;13.50;99.90;;;;;;5056278;28;20195;-45
2023/10/29 06:30:32;;;;;;;3.70;1.13;;;13.40;99.90;;;;;;5074040;28;20299;-44
2023/10/29 06:33:02;;;;;;;3.17;0.80;;;13.40;99.90;;;;;;5074305;28;20298;-46
2023/10/29 06:35:30;;;;;;;2.63;0.80;;;13.40;99.90;;;;;;5073982;28;20199;-44
2023/10/29 06:37:57;;;;;;;5.10;1.03;;;13.40;99.90;;;;;;5073736;28;20172;-45
2023/10/29 06:40:24;;;;;;;4.00;0.70;;;13.40;99.90;;;;;;5055792;28;20223;-45
2023/10/29 06:42:50;;;;;;;4.27;0.70;;;13.40;99.90;;;;;;5073577;28;20187;-46
2023/10/29 06:45:18;;;;;;;3.40;0.70;;;13.40;99.90;;;;;;5055901;28;20199;-46
2023/10/29 06:47:44;;;;;;;4.67;0.80;;;13.40;99.90;;;;;;5055688;28;20686;-44
2023/10/29 06:50:10;;;;;;;5.23;1.10;;;13.40;99.90;;;;;;5073624;28;20183;-45
2023/10/29 06:52:36;;;;;;;3.77;1.07;;;13.40;99.90;;;;;;5073504;28;20300;-45
2023/10/29 06:55:02;;;;;;;6.10;1.80;;;13.40;99.90;;;;;;5073362;28;20192;-45
2023/10/29 06:57:27;;;;;;;5.50;1.23;;;13.30;99.90;;;;;;5072683;28;20246;-45
2023/10/29 06:59:54;;;;;;;3.20;0.70;;;13.30;99.90;;;;;;5073589;28;20184;-46
2023/10/29 07:02:19;;;;;;;2.30;0.90;;;13.30;99.90;;;;;;5074372;28;20192;-44
2023/10/29 07:04:45;;;;;;;2.63;0.80;;;13.30;99.90;;;;;;5073752;28;20205;-44
2023/10/29 07:07:11;;;;;;;3.67;0.90;;;13.20;99.90;;;;;;5073595;28;20179;-44
2023/10/29 07:09:37;;;;;;;5.33;1.00;;;13.20;99.90;;;;;;5073657;28;20301;-45
2023/10/29 07:12:03;;;;;;;2.77;0.87;;;13.20;99.90;;;;;;5055684;28;20215;-44
2023/10/29 07:14:29;;;;;;;3.53;0.93;;;13.20;99.90;;;;;;5073476;28;20184;-44
2023/10/29 07:16:55;;;;;;;6.03;1.53;;;13.20;99.90;;;;;;5073858;28;20175;-45
2023/10/29 07:19:20;;;;;;;6.57;0.77;;;13.10;99.90;;;;;;5073787;28;20176;-43
2023/10/29 07:21:46;;;;;;;5.60;1.00;;;13.10;99.90;;;;;;5069427;28;20683;-44
2023/10/29 07:24:12;;;;;;;4.23;0.90;;;13.10;99.90;;;;;;5073036;28;20198;-44
2023/10/29 07:26:40;;;;;;;3.60;0.80;;;13.10;99.90;;;;;;5073111;28;20180;-44
2023/10/29 07:29:06;;;;;;;4.13;0.90;;;13.00;99.90;;;;;;5073152;28;20652;-44
2023/10/29 07:31:32;;;;;;;4.57;1.17;;;13.00;99.90;;;;;;5072969;28;20245;-44
2023/10/29 07:33:57;;;;;;;3.23;1.00;;;13.00;99.90;;;;;;5073121;28;20211;-45
2023/10/29 07:36:23;;;;;;;2.47;1.00;;;13.00;99.90;;;;;;5055071;28;20180;-45
2023/10/29 07:38:50;;;;;;;2.73;0.80;;;12.90;99.90;;;;;;5073097;28;20695;-45
2023/10/29 07:41:19;;;;;;;4.57;1.00;;;12.90;99.90;;;;;;5072995;28;20234;-45
2023/10/29 07:43:48;;;;;;;4.47;1.10;;;12.90;99.90;;;;;;5073125;28;20198;-44
2023/10/29 07:46:14;;;;;;;3.80;0.80;;;12.90;99.90;;;;;;5072996;28;20188;-44
2023/10/29 07:48:40;;;;;;;7.33;1.17;;;12.90;99.90;;;;;;5055145;28;20563;-44
2023/10/29 07:51:06;;;;;;;3.13;0.80;;;12.90;99.90;;;;;;5073100;28;20264;-45
2023/10/29 07:53:34;;;;;;;3.60;0.90;;;12.90;99.90;;;;;;5055083;28;20306;-45
2023/10/29 07:56:13;;;;;;;5.60;0.80;;;12.90;99.90;;;;;;5072883;28;20196;-45
2023/10/29 07:58:40;;;;;;;6.83;1.00;;;12.80;99.90;;;;;;5072879;28;20188;-44
2023/10/29 08:01:18;;;;;;;8.10;1.10;;;12.80;99.90;;;;;;5073068;28;20208;-44
2023/10/29 08:03:45;;;;;;;4.77;1.13;;;12.80;99.90;;;;;;5054830;28;20191;-45
2023/10/29 08:06:11;;;;;;;5.27;1.33;;;12.80;99.90;;;;;;5073028;28;20536;-45
2023/10/29 08:08:39;;;;;;;4.37;1.03;;;12.80;99.90;;;;;;5075541;28;20190;-45
2023/10/29 08:11:05;;;;;;;2.93;0.83;;;12.80;99.90;;;;;;5076486;28;20273;-45
2023/10/29 08:13:30;;;;;;;5.07;0.97;;;12.80;99.90;;;;;;5059107;28;20227;-45
2023/10/29 08:15:57;;;;;;;7.50;1.40;;;12.80;99.90;;;;;;5078238;28;20183;-45
2023/10/29 08:18:29;;;;;;;3.77;1.30;;;12.80;99.90;;;;;;5079250;28;20659;-44
2023/10/29 08:20:54;;;;;;;5.53;1.53;;;12.90;99.90;;;;;;5079490;28;20207;-45
2023/10/29 08:23:20;;;;;;;2.67;0.87;;;12.80;99.90;;;;;;5077102;28;20293;-42
2023/10/29 08:25:47;;;;;;;4.43;1.20;;;12.90;99.90;;;;;;5076606;28;20585;-43
2023/10/29 08:28:19;;;;;;;5.53;0.90;;;12.90;99.90;;;;;;5073966;28;20211;-40
2023/10/29 08:30:49;;;;;;;3.53;0.87;;;13.00;99.90;;;;;;5058175;28;20246;-40
2023/10/29 08:33:15;;;;;;;5.17;1.20;;;13.00;99.90;;;;;;5058104;28;20587;-42
2023/10/29 08:35:44;;;;;;;9.23;0.90;;;13.00;99.90;;;;;;5057904;28;20187;-41
2023/10/29 08:38:10;;;;;;;3.23;1.23;;;13.10;99.90;;;;;;5058141;28;20184;-41
2023/10/29 08:40:37;;;;;;;4.13;1.43;;;13.10;99.90;;;;;;5058589;28;20213;-41
2023/10/29 08:43:06;;;;;;;3.57;1.07;;;13.10;99.90;;;;;;5076011;28;20196;-42
2023/10/29 08:45:33;;;;;;;6.43;1.20;;;13.10;99.90;;;;;;5041420;28;20196;-41
2023/10/29 08:48:04;;;;;;;4.47;0.70;;;13.10;99.90;;;;;;5075820;28;20218;-41
2023/10/29 08:50:30;;;;;;;4.73;0.70;;;13.20;99.90;;;;;;5075660;28;20204;-41
2023/10/29 08:52:56;;;;;;;3.30;0.80;;;13.20;99.90;;;;;;5075966;28;20219;-42
2023/10/29 08:55:23;;;;;;;2.37;0.63;;;13.20;99.90;;;;;;5075749;28;20786;-41
2023/10/29 08:57:52;;;;;;;2.17;1.07;;;13.30;99.90;;;;;;5075548;28;20254;-42
2023/10/29 09:00:18;;;;;;;4.43;0.80;;;13.30;99.90;;;;;;5057426;28;20203;-41
2023/10/29 09:02:48;;;;;;;4.67;0.60;;;13.30;99.90;;;;;;5057533;28;20664;-41
2023/10/29 09:05:15;;;;;;;2.10;0.70;;;13.40;99.90;;;;;;5057531;28;20184;-41
2023/10/29 09:07:40;;;;;;;2.50;0.80;;;13.40;99.90;;;;;;5076690;28;20164;-42
2023/10/29 09:10:06;;;;;;;4.30;1.13;;;13.40;99.90;;;;;;5075828;28;20197;-40
2023/10/29 09:12:33;;;;;;;1.27;0.67;;;13.40;99.90;;;;;;5057227;28;20222;-41
2023/10/29 09:15:04;;;;;;;3.13;1.17;;;13.40;99.90;;;;;;5075283;28;20254;-42
2023/10/29 09:17:36;;;;;;;2.57;0.63;;;13.50;99.90;;;;;;5040681;28;20196;-40
2023/10/29 09:20:03;;;;;;;0.93;0.50;;;13.50;99.90;;;;;;5039779;28;20184;-41
2023/10/29 09:22:30;;;;;;;3.43;0.80;;;13.60;99.90;;;;;;5057692;28;20195;-41
2023/10/29 09:24:56;;;;;;;2.70;0.70;;;13.60;99.90;;;;;;5057045;28;20207;-43
2023/10/29 09:27:22;;;;;;;2.57;0.60;;;13.50;99.90;;;;;;5057040;28;20275;-40
2023/10/29 09:29:51;;;;;;;1.77;0.63;;;13.60;99.90;;;;;;5074933;28;20259;-41
2023/10/29 09:32:17;;;;;;;5.03;0.60;;;13.60;99.90;;;;;;5057335;28;20223;-42
2023/10/29 09:34:47;;;;;;;8.07;0.80;;;13.70;99.90;;;;;;5040293;28;20237;-40
2023/10/29 09:37:16;;;;;;;2.10;0.70;;;13.70;99.90;;;;;;5075299;28;20171;-41
2023/10/29 09:39:43;;;;;;;2.07;0.50;;;13.70;99.90;;;;;;5074057;28;20623;-41
2023/10/29 09:42:14;;;;;;;4.97;0.87;;;13.80;99.90;;;;;;5056200;28;20234;-41
2023/10/29 09:44:43;;;;;;;2.70;0.90;;;13.80;99.90;;;;;;5057267;28;20205;-41
2023/10/29 09:47:27;;;;;;;3.47;0.83;;;13.90;99.90;;;;;;5074984;28;20266;-41
2023/10/29 09:49:54;;;;;;;5.40;0.70;;;14.00;99.90;;;;;;5056572;28;20196;-42
2023/10/29 09:52:30;;;;;;;1.60;0.50;;;14.20;99.90;;;;;;5074908;28;20550;-41
2023/10/29 09:55:05;;;;;;;3.80;0.97;;;14.40;99.90;;;;;;5057891;28;20510;-43
2023/10/29 09:57:32;;;;;;;7.73;0.80;;;14.60;99.90;;;;;;5056426;28;20686;-41
2023/10/29 09:59:59;;;;;;;1.87;0.70;;;14.70;99.90;;;;;;5057389;28;20241;-42
2023/10/29 10:02:26;;;;;;;3.70;0.90;;;14.80;99.90;;;;;;5074269;28;20192;-40
2023/10/29 10:04:55;;;;;;;3.57;1.03;;;14.90;99.90;;;;;;5074466;28;20199;-43
2023/10/29 10:07:23;;;;;;;2.00;0.90;;;15.10;99.90;;;;;;5055283;28;20191;-40
2023/10/29 10:10:00;;;;;;;1.87;0.73;;;15.00;99.90;;;;;;5074412;28;20561;-43
2023/10/29 10:12:28;;;;;;;4.00;0.73;;;15.00;99.90;;;;;;5074354;28;20545;-41
2023/10/29 10:15:13;;;;;;;3.67;1.13;;;15.00;99.90;;;;;;5039598;28;20190;-41
2023/10/29 10:17:44;;;;;;;5.80;1.00;;;14.90;99.90;;;;;;5074539;28;20162;-42
2023/10/29 10:20:11;;;;;;;5.60;1.23;;;14.90;99.90;;;;;;5057005;28;20243;-41
2023/10/29 10:22:43;;;;;;;2.60;0.90;;;14.90;99.90;;;;;;5056524;28;20191;-43
2023/10/29 10:25:23;;;;;;;4.10;0.87;;;14.90;99.90;;;;;;5073825;28;20671;-42
2023/10/29 10:27:54;;;;;;;3.10;1.17;;;15.00;99.90;;;;;;5073371;28;20183;-43
2023/10/29 10:30:27;;;;;;;2.20;0.80;;;15.10;99.90;;;;;;5073670;28;20195;-42
2023/10/29 10:32:54;;;;;;;5.90;1.07;;;15.30;99.90;;;;;;5056619;28;20584;-43
2023/10/29 10:35:20;;;;;;;2.20;0.93;;;15.40;99.90;;;;;;5074320;28;20556;-41
2023/10/29 10:37:54;;;;;;;4.43;1.10;;;15.60;99.90;;;;;;5055923;28;20206;-42
2023/10/29 10:40:26;;;;;;;2.47;1.00;;;15.80;99.90;;;;;;5071687;28;20207;-42
2023/10/29 10:42:56;;;;;;;1.93;0.87;;;15.90;99.90;;;;;;5056747;28;20205;-43
2023/10/29 10:45:27;;;;;;;3.57;0.77;;;16.00;99.90;;;;;;5055605;28;20234;-42
2023/10/29 10:48:03;;;;;;;3.93;0.77;;;16.10;99.90;;;;;;5055830;28;20651;-42
2023/10/29 10:50:31;;;;;;;3.97;1.07;;;16.20;99.90;;;;;;5073960;28;20211;-42
2023/10/29 10:52:58;;;;;;;2.27;0.80;;;16.10;99.90;;;;;;5056707;28;20317;-42
2023/10/29 10:55:53;;;;;;;2.03;0.70;;;16.10;99.90;;;;;;5055825;28;20188;-42
2023/10/29 10:58:19;;;;;;;2.50;0.73;;;16.10;99.90;;;;;;5073664;28;20213;-41
2023/10/29 11:00:49;;;;;;;4.83;0.77;;;16.20;99.90;;;;;;5055489;28;20203;-42
2023/10/29 11:03:17;;;;;;;2.43;0.80;;;16.20;99.90;;;;;;5073653;28;20195;-42
2023/10/29 11:05:44;;;;;;;2.60;0.90;;;16.30;99.90;;;;;;5056412;28;20199;-46
2023/10/29 11:08:14;;;;;;;4.50;1.00;;;16.40;99.90;;;;;;5056182;28;20206;-45
2023/10/29 11:10:39;;;;;;;2.40;0.80;;;16.60;99.90;;;;;;5056150;28;20628;-45
2023/10/29 11:13:20;;;;;;;3.47;0.73;;;16.80;99.90;;;;;;5055255;28;20306;-45
2023/10/29 11:15:50;;;;;;;5.40;0.87;;;16.90;99.90;;;;;;5073467;28;20225;-46
2023/10/29 11:18:28;;;;;;;1.47;0.77;;;17.00;99.90;;;;;;5055178;28;20190;-46
2023/10/29 11:20:59;;;;;;;3.40;0.70;;;17.00;99.90;;;;;;5073656;28;20663;-47
2023/10/29 11:23:29;;;;;;;2.67;0.70;;;16.90;99.90;;;;;;5073531;28;20188;-48
2023/10/29 11:26:19;;;;;;;3.37;0.90;;;16.70;99.90;;;;;;5073170;28;20203;-47
2023/10/29 11:28:53;;;;;;;1.83;1.00;;;16.50;99.90;;;;;;5073577;28;20198;-45
2023/10/29 11:31:21;;;;;;;3.73;1.00;;;16.40;99.90;;;;;;5055121;28;20223;-47
2023/10/29 11:40:36;;;;;;;2.23;0.70;;;15.80;99.90;;;;;;5073104;28;20539;-47
2023/10/29 11:43:21;;;;;;;2.40;0.80;;;15.60;99.90;;;;;;5057338;28;20180;-47
2023/10/29 11:45:53;;;;;;;1.30;0.50;;;15.50;99.90;;;;;;5058985;28;20302;-47
2023/10/29 11:48:21;;;;;;;2.97;0.67;;;15.30;99.90;;;;;;5077061;28;20233;-47
2023/10/29 11:51:11;;;;;;;1.33;0.50;;;15.20;99.90;;;;;;5077049;28;20679;-47
2023/10/29 11:53:38;;;;;;;3.70;0.90;;;15.00;99.90;;;;;;5076855;28;20215;-47
2023/10/29 11:56:05;;;;;;;3.30;0.70;;;14.90;99.90;;;;;;5076724;28;20274;-46
2023/10/29 11:58:32;;;;;;;1.47;0.70;;;14.90;99.90;;;;;;5076678;28;20664;-47
2023/10/29 12:01:01;;;;;;;2.80;0.50;;;14.80;99.90;;;;;;5076539;28;20210;-47
2023/10/29 12:03:29;;;;;;;3.50;0.47;;;14.70;99.90;;;;;;5058750;28;20191;-47
2023/10/29 12:05:55;;;;;;;1.57;0.60;;;14.50;99.90;;;;;;5076809;28;20188;-47
2023/10/29 12:08:30;;;;;;;1.80;0.53;;;14.50;99.90;;;;;;5076581;28;20226;-45
2023/10/29 12:10:56;;;;;;;2.27;0.60;;;14.40;99.90;;;;;;5076788;28;20222;-47
2023/10/29 12:13:22;;;;;;;2.17;0.50;;;14.40;99.90;;;;;;5076706;28;20223;-47
2023/10/29 12:16:00;;;;;;;0.97;0.50;;;14.30;99.90;;;;;;5076361;28;20195;-47
2023/10/29 12:18:26;;;;;;;2.10;0.70;;;14.40;99.90;;;;;;5058581;28;20658;-45
2023/10/29 12:21:04;;;;;;;4.73;0.80;;;14.30;99.90;;;;;;5058249;28;20210;-48
2023/10/29 12:23:31;;;;;;;2.23;0.70;;;14.30;99.90;;;;;;5058246;28;20191;-46
2023/10/29 12:26:00;;;;;;;3.30;0.67;;;14.30;99.90;;;;;;5076057;28;20207;-47
2023/10/29 12:28:26;;;;;;;2.43;0.80;;;14.30;99.90;;;;;;5076229;28;20551;-46
2023/10/29 12:30:52;;;;;;;6.90;0.93;;;14.20;99.90;;;;;;5060282;28;20207;-46
2023/10/29 12:33:29;;;;;;;2.60;1.37;;;14.20;99.90;;;;;;5061998;28;20214;-46
2023/10/29 12:35:59;;;;;;;1.63;0.70;;;14.20;99.90;;;;;;5060020;28;20210;-46
2023/10/29 12:38:26;;;;;;;1.83;0.73;;;14.20;99.90;;;;;;5058165;28;20179;-46
2023/10/29 12:41:13;;;;;;;3.83;1.13;;;14.20;99.90;;;;;;5057376;28;20310;-47
2023/10/29 12:43:44;;;;;;;6.37;0.90;;;14.20;99.90;;;;;;5076176;28;20203;-46
2023/10/29 12:46:18;;;;;;;3.30;0.77;;;14.20;99.90;;;;;;5057944;28;20246;-45
2023/10/29 12:49:07;;;;;;;3.00;0.90;;;14.20;99.90;;;;;;5075839;28;20203;-45
2023/10/29 12:51:39;;;;;;;7.50;0.83;;;14.10;99.90;;;;;;5057855;28;20215;-46
2023/10/29 12:54:29;;;;;;;3.83;1.30;;;14.10;99.90;;;;;;5074329;28;20294;-45
2023/10/29 12:57:05;;;;;;;2.83;1.10;;;14.10;99.90;;;;;;5076008;28;20175;-48
2023/10/29 12:59:36;;;;;;;2.83;0.70;;;14.20;99.90;;;;;;5076618;28;20170;-47
2023/10/29 13:02:05;;;;;;;2.00;0.60;;;14.30;99.90;;;;;;5057589;28;20214;-49
2023/10/29 13:04:33;;;;;;;1.70;0.67;;;14.40;99.90;;;;;;5074193;28;20192;-46
2023/10/29 13:07:07;;;;;;;1.70;0.50;;;14.40;99.90;;;;;;5075796;28;20191;-46